Time;durP1;ratioP1;P1;durP2;ratioP2;P2;SDS_P1;SDS_P2;PMS_P1;PMS_P2;Temp;Humidity;BMP_temperature;BMP_pressure;BME280_temperature;BME280_humidity;BME280_pressure;Samples;Min_cycle;Max_cycle;Signal;HPM_P1;HPM_P2
2022/09/06 00:01:23;;;;;;;0.22;0.22;;;17.30;99.90;;;;;;6086104;23;20618;-79
2022/09/06 00:03:50;;;;;;;0.35;0.35;;;17.20;99.90;;;;;;6086170;23;20105;-79
2022/09/06 00:06:18;;;;;;;0.50;0.50;;;17.20;99.90;;;;;;6112695;23;20046;-79
2022/09/06 00:08:45;;;;;;;0.70;0.60;;;17.20;99.90;;;;;;6063286;23;20474;-79
2022/09/06 00:11:12;;;;;;;0.47;0.40;;;17.20;99.90;;;;;;6087267;23;20042;-79
2022/09/06 00:13:39;;;;;;;0.57;0.38;;;17.20;99.90;;;;;;6086937;23;20398;-79
2022/09/06 00:16:07;;;;;;;0.30;0.30;;;17.10;99.90;;;;;;6086690;23;20033;-79
2022/09/06 00:18:34;;;;;;;0.30;0.30;;;17.10;99.90;;;;;;6085815;23;20105;-80
2022/09/06 00:21:02;;;;;;;0.30;0.30;;;17.00;99.90;;;;;;6112698;23;20270;-79
2022/09/06 00:23:29;;;;;;;0.40;0.40;;;17.00;99.90;;;;;;6062294;23;20022;-79
2022/09/06 00:26:03;;;;;;;0.50;0.40;;;17.00;99.90;;;;;;6087400;23;20093;-79
2022/09/06 00:28:30;;;;;;;0.40;0.40;;;17.00;99.90;;;;;;6087011;23;20057;-79
2022/09/06 00:30:57;;;;;;;0.50;0.43;;;16.90;99.90;;;;;;6087343;23;20064;-79
2022/09/06 00:33:25;;;;;;;0.45;0.45;;;16.90;99.90;;;;;;6086203;23;20029;-79
2022/09/06 00:35:57;;;;;;;0.70;0.50;;;16.90;99.90;;;;;;6086763;23;20049;-79
2022/09/06 00:38:24;;;;;;;1.00;0.60;;;16.80;99.90;;;;;;6087055;23;20443;-79
2022/09/06 00:40:51;;;;;;;0.40;0.40;;;16.80;99.90;;;;;;6087693;23;20578;-79
2022/09/06 00:43:18;;;;;;;0.32;0.32;;;16.80;99.90;;;;;;6086598;23;20342;-79
2022/09/06 00:45:45;;;;;;;0.40;0.40;;;16.80;99.90;;;;;;6112213;23;20061;-79
2022/09/06 00:48:12;;;;;;;0.73;0.50;;;16.70;99.90;;;;;;6085796;23;20316;-79
2022/09/06 00:50:38;;;;;;;0.40;0.40;;;16.70;99.90;;;;;;6086525;23;20072;-78
2022/09/06 00:53:05;;;;;;;0.60;0.50;;;16.70;99.90;;;;;;6086725;23;20412;-79
2022/09/06 00:55:32;;;;;;;0.43;0.40;;;16.70;99.90;;;;;;6086544;23;20045;-79
2022/09/06 00:57:59;;;;;;;0.95;0.60;;;16.60;99.90;;;;;;6111912;23;20018;-79
2022/09/06 01:00:27;;;;;;;0.50;0.50;;;16.60;99.90;;;;;;6060831;23;20064;-79
2022/09/06 01:02:53;;;;;;;0.47;0.38;;;16.60;99.90;;;;;;6061328;23;20218;-79
2022/09/06 01:05:22;;;;;;;0.40;0.40;;;16.60;99.90;;;;;;6062930;23;20104;-79
2022/09/06 01:08:05;;;;;;;0.40;0.40;;;16.60;99.90;;;;;;6088315;23;20097;-79
2022/09/06 01:10:37;;;;;;;0.50;0.40;;;16.60;99.90;;;;;;6063387;23;20049;-78
2022/09/06 01:13:22;;;;;;;0.65;0.55;;;16.60;99.90;;;;;;6111765;23;20048;-79
2022/09/06 01:16:22;;;;;;;1.00;0.60;;;16.50;99.90;;;;;;6063808;23;20028;-79
2022/09/06 01:19:04;;;;;;;0.57;0.43;;;16.50;99.90;;;;;;6063059;23;20025;-79
2022/09/06 01:21:42;;;;;;;0.40;0.40;;;16.50;99.90;;;;;;6091633;23;20029;-79
2022/09/06 01:24:24;;;;;;;0.40;0.40;;;16.50;99.90;;;;;;6092880;23;20025;-78
2022/09/06 01:27:08;;;;;;;0.63;0.60;;;16.40;99.90;;;;;;6118594;23;20318;-79
2022/09/06 01:30:07;;;;;;;0.43;0.43;;;16.40;99.90;;;;;;6068011;23;20442;-78
2022/09/06 01:32:36;;;;;;;0.50;0.50;;;16.30;99.90;;;;;;6094033;23;20057;-78
2022/09/06 01:35:28;;;;;;;0.88;0.63;;;16.30;99.90;;;;;;6091077;23;20098;-78
2022/09/06 01:37:55;;;;;;;0.38;0.30;;;16.30;99.90;;;;;;6095546;23;20061;-78
2022/09/06 01:40:22;;;;;;;0.40;0.40;;;16.30;99.90;;;;;;6071129;23;20037;-78
2022/09/06 01:42:48;;;;;;;0.93;0.85;;;16.30;99.90;;;;;;6070731;23;20345;-78
2022/09/06 01:45:20;;;;;;;0.60;0.60;;;16.30;99.90;;;;;;6069994;23;20135;-78
2022/09/06 01:47:53;;;;;;;0.68;0.60;;;16.20;99.90;;;;;;6092168;23;20029;-78
2022/09/06 01:50:46;;;;;;;0.47;0.47;;;16.30;99.90;;;;;;6118855;23;20034;-78
2022/09/06 01:53:25;;;;;;;0.65;0.55;;;16.30;99.90;;;;;;6092350;23;20614;-79
2022/09/06 01:56:07;;;;;;;0.50;0.50;;;16.30;99.90;;;;;;6118574;23;20032;-78
2022/09/06 01:59:06;;;;;;;0.40;0.38;;;16.20;99.90;;;;;;6092375;23;20089;-79
2022/09/06 02:01:53;;;;;;;0.40;0.40;;;16.30;99.90;;;;;;6107568;23;20511;-78
2022/09/06 02:04:24;;;;;;;0.57;0.45;;;16.30;99.90;;;;;;6093311;23;20037;-78
2022/09/06 02:06:59;;;;;;;0.47;0.43;;;16.20;99.90;;;;;;6092473;23;20022;-78
2022/09/06 02:09:26;;;;;;;0.40;0.40;;;16.20;99.90;;;;;;6068979;23;20049;-78
2022/09/06 02:11:55;;;;;;;0.57;0.43;;;16.30;99.90;;;;;;6068700;23;20030;-78
2022/09/06 02:14:37;;;;;;;0.63;0.50;;;16.30;99.90;;;;;;6068464;23;20030;-78
2022/09/06 02:17:04;;;;;;;0.50;0.50;;;16.20;99.90;;;;;;6068950;23;20077;-79
2022/09/06 02:19:35;;;;;;;0.45;0.45;;;16.20;99.90;;;;;;6092608;23;20026;-78
2022/09/06 02:22:04;;;;;;;0.40;0.40;;;16.20;99.90;;;;;;6092035;23;20050;-78
2022/09/06 02:24:30;;;;;;;0.75;0.50;;;16.10;99.90;;;;;;6092072;23;20458;-78
2022/09/06 02:26:57;;;;;;;0.40;0.30;;;16.10;99.90;;;;;;6091968;23;20061;-78
2022/09/06 02:29:24;;;;;;;0.55;0.45;;;16.10;99.90;;;;;;6067891;23;20018;-78
2022/09/06 02:32:08;;;;;;;0.40;0.40;;;16.10;99.90;;;;;;6067634;23;20101;-79
2022/09/06 02:34:36;;;;;;;0.63;0.63;;;16.10;99.90;;;;;;6091686;23;20026;-78
2022/09/06 02:37:03;;;;;;;0.32;0.32;;;16.10;99.90;;;;;;6092137;23;20049;-78
2022/09/06 02:39:31;;;;;;;0.60;0.50;;;16.00;99.90;;;;;;6092676;23;20029;-78
2022/09/06 02:41:57;;;;;;;0.57;0.50;;;16.10;99.90;;;;;;6068333;23;20069;-78
2022/09/06 02:44:24;;;;;;;0.55;0.50;;;16.10;99.90;;;;;;6068423;23;20025;-78
2022/09/06 02:46:51;;;;;;;0.45;0.40;;;16.00;99.90;;;;;;6092026;23;20022;-79
2022/09/06 02:49:23;;;;;;;0.65;0.65;;;16.00;99.90;;;;;;6069348;23;20022;-78
2022/09/06 02:51:50;;;;;;;0.65;0.57;;;16.00;99.90;;;;;;6118118;23;20034;-78
2022/09/06 02:54:17;;;;;;;0.80;0.60;;;16.00;99.90;;;;;;6092579;23;20022;-79
2022/09/06 02:56:44;;;;;;;0.60;0.60;;;16.00;99.90;;;;;;6092880;23;20488;-78
2022/09/06 02:59:17;;;;;;;0.40;0.40;;;16.00;99.90;;;;;;6093371;23;20123;-79
2022/09/06 03:01:44;;;;;;;0.50;0.50;;;16.00;99.90;;;;;;6067266;23;20026;-78
2022/09/06 03:04:11;;;;;;;0.73;0.60;;;16.00;99.90;;;;;;6090949;23;20061;-79
2022/09/06 03:06:37;;;;;;;0.40;0.38;;;16.00;99.90;;;;;;6091663;23;20030;-78
2022/09/06 03:09:04;;;;;;;0.63;0.55;;;16.00;99.90;;;;;;6092140;23;20060;-78
2022/09/06 03:11:31;;;;;;;0.60;0.40;;;16.00;99.90;;;;;;6068685;23;20041;-78
2022/09/06 03:13:58;;;;;;;0.60;0.60;;;16.00;99.90;;;;;;6067929;23;20073;-78
2022/09/06 03:16:25;;;;;;;0.50;0.50;;;16.00;99.90;;;;;;6067583;23;20080;-79
2022/09/06 03:18:52;;;;;;;0.50;0.50;;;16.00;99.90;;;;;;6091458;23;20061;-78
2022/09/06 03:21:18;;;;;;;1.05;0.50;;;16.00;99.90;;;;;;6091931;23;20022;-78
2022/09/06 03:23:46;;;;;;;0.40;0.40;;;15.90;99.90;;;;;;6091726;23;20030;-78
2022/09/06 03:26:13;;;;;;;0.80;0.55;;;15.90;99.90;;;;;;6092041;23;20478;-78
2022/09/06 03:28:40;;;;;;;0.52;0.52;;;15.90;99.90;;;;;;6068107;23;20026;-78
2022/09/06 03:31:06;;;;;;;0.68;0.50;;;15.90;99.90;;;;;;6091162;23;20156;-78
2022/09/06 03:33:33;;;;;;;0.73;0.65;;;15.80;99.90;;;;;;6090203;23;20051;-78
2022/09/06 03:36:01;;;;;;;0.55;0.50;;;15.80;99.90;;;;;;6067763;23;20072;-78
2022/09/06 03:38:28;;;;;;;1.15;0.57;;;15.80;99.90;;;;;;6067633;23;20080;-78
2022/09/06 03:40:55;;;;;;;0.50;0.47;;;15.80;99.90;;;;;;6067819;23;20029;-79
2022/09/06 03:43:23;;;;;;;1.02;0.73;;;15.70;99.90;;;;;;6068021;23;20057;-77
2022/09/06 03:45:51;;;;;;;0.80;0.70;;;15.70;99.90;;;;;;6091324;23;20026;-78
2022/09/06 03:48:18;;;;;;;0.40;0.40;;;15.70;99.90;;;;;;6090738;23;20072;-78
2022/09/06 03:50:46;;;;;;;0.60;0.60;;;15.60;99.90;;;;;;6066737;23;20044;-78
2022/09/06 03:53:13;;;;;;;0.63;0.60;;;15.60;99.90;;;;;;6090901;23;20484;-78
2022/09/06 03:55:43;;;;;;;0.40;0.40;;;15.60;99.90;;;;;;6068109;23;20029;-78
2022/09/06 03:58:10;;;;;;;0.47;0.43;;;15.60;99.90;;;;;;6092006;23;20089;-78
2022/09/06 04:00:37;;;;;;;1.10;0.85;;;15.60;99.90;;;;;;6067218;23;20022;-78
2022/09/06 04:03:04;;;;;;;0.50;0.50;;;15.60;99.90;;;;;;6066892;23;20114;-79
2022/09/06 04:05:31;;;;;;;0.43;0.43;;;15.60;99.90;;;;;;6090762;23;20100;-78
2022/09/06 04:07:57;;;;;;;0.75;0.70;;;15.60;99.90;;;;;;6090726;23;20049;-78
2022/09/06 04:10:25;;;;;;;0.60;0.57;;;15.60;99.90;;;;;;6090861;23;20207;-79
2022/09/06 04:12:52;;;;;;;0.70;0.70;;;15.60;99.90;;;;;;6091617;23;20096;-79
2022/09/06 04:15:18;;;;;;;0.60;0.50;;;15.60;99.90;;;;;;6091120;23;20094;-78
2022/09/06 04:17:45;;;;;;;0.75;0.60;;;15.60;99.90;;;;;;6090728;23;20053;-78
2022/09/06 04:20:13;;;;;;;0.90;0.70;;;15.50;99.90;;;;;;6067453;23;20468;-79
2022/09/06 04:22:39;;;;;;;0.50;0.47;;;15.60;99.90;;;;;;6066925;23;20049;-78
2022/09/06 04:25:07;;;;;;;0.60;0.60;;;15.60;99.90;;;;;;6091801;23;20474;-79
2022/09/06 04:27:34;;;;;;;0.70;0.60;;;15.60;99.90;;;;;;6067259;23;20022;-78
2022/09/06 04:30:00;;;;;;;0.68;0.68;;;15.60;99.90;;;;;;6091372;23;20276;-78
2022/09/06 04:32:27;;;;;;;0.60;0.57;;;15.60;99.90;;;;;;6066388;23;20121;-79
2022/09/06 04:34:54;;;;;;;0.85;0.70;;;15.60;99.90;;;;;;6090976;23;20064;-78
2022/09/06 04:37:21;;;;;;;0.73;0.68;;;15.60;99.90;;;;;;6091411;23;20026;-79
2022/09/06 04:39:48;;;;;;;0.40;0.40;;;15.60;99.90;;;;;;6091995;23;20022;-78
2022/09/06 04:42:14;;;;;;;0.85;0.65;;;15.60;99.90;;;;;;6068235;23;20034;-78
2022/09/06 04:44:41;;;;;;;0.60;0.60;;;15.70;99.90;;;;;;6091678;23;20025;-79
2022/09/06 04:47:17;;;;;;;0.70;0.70;;;15.70;99.90;;;;;;6089761;23;20053;-78
2022/09/06 04:49:44;;;;;;;1.00;0.90;;;15.70;99.90;;;;;;6089675;23;20021;-79
2022/09/06 04:52:10;;;;;;;0.95;0.77;;;15.70;99.90;;;;;;6090925;23;20057;-79
2022/09/06 04:54:37;;;;;;;0.90;0.77;;;15.70;99.90;;;;;;6090646;23;20046;-79
2022/09/06 04:57:04;;;;;;;1.05;0.85;;;15.70;99.90;;;;;;6090301;23;20057;-78
2022/09/06 04:59:31;;;;;;;1.13;0.80;;;15.80;99.90;;;;;;6088513;23;20084;-78
2022/09/06 05:01:58;;;;;;;0.90;0.70;;;15.70;99.90;;;;;;6083204;23;20062;-80
2022/09/06 05:04:25;;;;;;;0.63;0.50;;;15.70;99.90;;;;;;6082509;23;20033;-79
2022/09/06 05:07:06;;;;;;;0.95;0.80;;;15.70;99.90;;;;;;6083515;23;20030;-79
2022/09/06 05:09:33;;;;;;;1.10;0.98;;;15.70;99.90;;;;;;6083481;23;20022;-79
2022/09/06 05:12:00;;;;;;;1.35;1.00;;;15.80;99.90;;;;;;6083906;23;20029;-80
2022/09/06 05:14:28;;;;;;;1.27;0.90;;;15.80;99.90;;;;;;6059345;23;20065;-81
2022/09/06 05:16:54;;;;;;;1.10;0.88;;;15.80;99.90;;;;;;6083341;23;20033;-79
2022/09/06 05:19:22;;;;;;;0.88;0.70;;;15.80;99.90;;;;;;6057871;23;20105;-79
2022/09/06 05:21:50;;;;;;;1.13;0.90;;;15.80;99.90;;;;;;6081153;23;20351;-78
2022/09/06 05:24:17;;;;;;;1.20;0.80;;;15.80;99.90;;;;;;6057374;23;20046;-80
2022/09/06 05:26:44;;;;;;;0.63;0.63;;;15.80;99.90;;;;;;6084409;23;20395;-80
2022/09/06 05:29:11;;;;;;;1.05;0.80;;;15.80;99.90;;;;;;6057193;23;20057;-81
2022/09/06 05:31:37;;;;;;;1.63;0.80;;;15.80;99.90;;;;;;6081633;23;20030;-81
2022/09/06 05:34:05;;;;;;;1.08;0.73;;;15.80;99.90;;;;;;6061343;23;20129;-80
2022/09/06 05:36:32;;;;;;;1.13;1.02;;;15.80;99.90;;;;;;6086054;23;20085;-80
2022/09/06 05:39:00;;;;;;;1.42;1.00;;;15.80;99.90;;;;;;6086105;23;20022;-81
2022/09/06 05:41:26;;;;;;;0.70;0.70;;;15.80;99.90;;;;;;6060964;23;20372;-81
2022/09/06 05:43:53;;;;;;;1.45;0.90;;;15.80;99.90;;;;;;6085283;23;20106;-80
2022/09/06 05:46:20;;;;;;;1.33;0.88;;;15.80;99.90;;;;;;6085855;23;20503;-80
2022/09/06 05:49:00;;;;;;;0.85;0.60;;;15.90;99.90;;;;;;6085883;23;20041;-80
2022/09/06 05:51:27;;;;;;;1.60;1.00;;;15.90;99.90;;;;;;6063812;23;20026;-81
2022/09/06 05:53:54;;;;;;;1.33;1.10;;;16.00;99.90;;;;;;6063034;23;20458;-81
2022/09/06 05:56:21;;;;;;;1.55;1.27;;;16.00;99.90;;;;;;6087146;23;20033;-81
2022/09/06 05:58:48;;;;;;;1.27;1.05;;;16.00;99.90;;;;;;6082777;23;20548;-81
2022/09/06 06:01:18;;;;;;;0.77;0.77;;;16.10;99.90;;;;;;6081283;23;20026;-80
2022/09/06 06:04:02;;;;;;;1.23;1.02;;;16.10;99.90;;;;;;6085963;23;20078;-80
2022/09/06 06:06:30;;;;;;;1.00;0.90;;;16.20;99.90;;;;;;6081857;23;20045;-81
2022/09/06 06:08:57;;;;;;;1.40;1.10;;;16.30;99.90;;;;;;6081404;23;20042;-81
2022/09/06 06:11:25;;;;;;;1.25;1.13;;;16.40;99.90;;;;;;6081617;23;20619;-80
2022/09/06 06:13:52;;;;;;;1.10;0.93;;;16.50;99.90;;;;;;6059300;23;20098;-82
2022/09/06 06:16:20;;;;;;;1.25;1.00;;;16.60;99.90;;;;;;6085429;23;20031;-84
2022/09/06 06:18:47;;;;;;;1.08;0.93;;;16.70;99.90;;;;;;6086671;23;20086;-84
2022/09/06 06:21:20;;;;;;;1.58;0.90;;;16.80;99.90;;;;;;6064764;23;20030;-85
2022/09/06 06:23:49;;;;;;;1.17;1.00;;;16.90;99.90;;;;;;6085138;23;20049;-86
2022/09/06 06:26:17;;;;;;;0.50;0.50;;;17.00;99.90;;;;;;6081754;23;20270;-85
2022/09/06 06:28:44;;;;;;;1.20;0.90;;;17.00;99.90;;;;;;6058225;23;20027;-85
2022/09/06 06:31:11;;;;;;;1.35;0.85;;;17.10;99.90;;;;;;6058068;23;20038;-84
2022/09/06 06:33:38;;;;;;;1.30;1.05;;;17.10;99.90;;;;;;6084093;23;20146;-84
2022/09/06 06:36:15;;;;;;;1.00;0.90;;;17.20;99.90;;;;;;6062472;23;20061;-85
2022/09/06 06:38:43;;;;;;;1.00;0.77;;;17.30;99.90;;;;;;6085415;23;20026;-84
2022/09/06 06:41:11;;;;;;;1.23;0.88;;;17.40;99.90;;;;;;6062424;23;20490;-84
2022/09/06 06:43:38;;;;;;;0.80;0.60;;;17.50;99.90;;;;;;6063099;23;20105;-85
2022/09/06 06:46:07;;;;;;;1.17;0.90;;;17.50;99.90;;;;;;6063416;23;20347;-83
2022/09/06 06:48:35;;;;;;;0.50;0.50;;;17.60;99.90;;;;;;6087003;23;20062;-85
2022/09/06 06:51:04;;;;;;;1.35;0.90;;;17.60;99.90;;;;;;6087282;23;20101;-84
2022/09/06 06:53:31;;;;;;;1.00;0.70;;;17.70;99.90;;;;;;6086112;23;20034;-83
2022/09/06 06:55:59;;;;;;;1.38;0.90;;;17.70;99.90;;;;;;6063673;23;20224;-84
2022/09/06 06:58:26;;;;;;;0.95;0.82;;;17.80;99.90;;;;;;6069765;23;20022;-84
2022/09/06 07:00:53;;;;;;;1.05;0.80;;;17.80;99.90;;;;;;6086882;23;20061;-85
2022/09/06 07:03:20;;;;;;;1.80;1.30;;;17.80;99.90;;;;;;6059362;23;20070;-84
2022/09/06 07:05:47;;;;;;;0.77;0.70;;;17.80;99.90;;;;;;6060773;23;20042;-84
2022/09/06 07:08:35;;;;;;;1.20;0.93;;;17.90;99.90;;;;;;6065305;23;20033;-82
2022/09/06 07:11:04;;;;;;;1.35;1.00;;;18.00;99.90;;;;;;6086141;23;20022;-85
2022/09/06 07:13:32;;;;;;;0.80;0.70;;;18.10;99.90;;;;;;6086612;23;20026;-85
2022/09/06 07:16:10;;;;;;;1.20;0.80;;;18.10;99.90;;;;;;6087235;23;20034;-85
2022/09/06 07:18:40;;;;;;;1.38;0.93;;;18.20;99.90;;;;;;6086673;23;20026;-85
2022/09/06 07:21:10;;;;;;;0.77;0.73;;;18.20;99.90;;;;;;6063825;23;20026;-84
2022/09/06 07:23:57;;;;;;;0.80;0.70;;;18.20;99.90;;;;;;6067199;23;20023;-84
2022/09/06 07:26:33;;;;;;;0.50;0.50;;;18.30;99.90;;;;;;6087641;23;20474;-84
2022/09/06 07:29:01;;;;;;;0.63;0.63;;;18.30;99.90;;;;;;6063015;23;20062;-84
2022/09/06 07:31:28;;;;;;;0.40;0.40;;;18.20;99.90;;;;;;6086421;23;20451;-85
2022/09/06 07:34:16;;;;;;;1.33;0.60;;;18.20;99.90;;;;;;6066139;23;20114;-84
2022/09/06 07:36:43;;;;;;;1.20;0.70;;;18.30;99.90;;;;;;6063515;23;20054;-84
2022/09/06 07:39:10;;;;;;;1.23;0.88;;;18.30;99.90;;;;;;6086378;23;20026;-85
2022/09/06 07:41:37;;;;;;;3.15;0.75;;;18.30;99.90;;;;;;6062806;23;20915;-84
2022/09/06 07:44:04;;;;;;;0.98;0.80;;;18.30;99.90;;;;;;6086794;23;20026;-84
2022/09/06 07:46:31;;;;;;;1.80;0.80;;;18.40;99.90;;;;;;6062889;23;20049;-84
2022/09/06 07:48:58;;;;;;;1.00;0.73;;;18.50;99.90;;;;;;6085861;23;20406;-84
2022/09/06 07:51:25;;;;;;;2.13;1.00;;;18.60;99.90;;;;;;6062624;23;20128;-84
2022/09/06 07:53:54;;;;;;;2.58;1.23;;;18.70;99.90;;;;;;6085921;23;20490;-84
2022/09/06 07:56:41;;;;;;;1.35;0.88;;;18.70;99.90;;;;;;6086566;23;20026;-84
2022/09/06 07:59:08;;;;;;;1.83;0.90;;;18.90;99.90;;;;;;6062152;23;20058;-83
2022/09/06 08:01:36;;;;;;;1.52;0.75;;;19.00;99.90;;;;;;6085692;23;20065;-84
2022/09/06 08:04:05;;;;;;;1.10;0.70;;;19.20;99.90;;;;;;6083808;23;20061;-83
2022/09/06 08:06:34;;;;;;;0.70;0.50;;;19.30;99.90;;;;;;6085713;23;20109;-84
2022/09/06 08:09:21;;;;;;;0.60;0.40;;;19.40;99.90;;;;;;6065064;23;20093;-81
2022/09/06 08:11:49;;;;;;;1.27;0.50;;;19.50;99.90;;;;;;6078310;23;20082;-81
2022/09/06 08:14:16;;;;;;;2.95;0.80;;;19.50;99.90;;;;;;6076844;23;20049;-81
2022/09/06 08:16:43;;;;;;;0.93;0.63;;;19.60;99.90;;;;;;6077680;23;20053;-80
2022/09/06 08:19:11;;;;;;;1.95;0.80;;;19.60;99.90;;;;;;6077779;23;20125;-81
2022/09/06 08:21:38;;;;;;;0.93;0.75;;;19.60;99.90;;;;;;6054569;23;20519;-80
2022/09/06 08:24:06;;;;;;;0.93;0.60;;;19.60;99.90;;;;;;6053684;23;20330;-81
2022/09/06 08:26:33;;;;;;;1.98;0.80;;;19.60;99.90;;;;;;6077731;23;20170;-81
2022/09/06 08:29:02;;;;;;;3.55;1.15;;;19.70;99.90;;;;;;6077652;23;20093;-81
2022/09/06 08:31:30;;;;;;;1.25;0.60;;;19.70;99.90;;;;;;6077746;23;20101;-81
2022/09/06 08:33:57;;;;;;;0.40;0.40;;;19.70;99.90;;;;;;6053197;23;20101;-80
2022/09/06 08:36:30;;;;;;;1.38;0.47;;;19.70;99.90;;;;;;6054060;23;20474;-81
2022/09/06 08:38:57;;;;;;;;;;;19.70;99.90;;;;;;6032643;23;20101;-81
2022/09/06 08:41:43;;;;;;;1.70;0.40;;;19.70;99.90;;;;;;6076801;23;20016;-80
2022/09/06 08:44:13;;;;;;;0.85;0.47;;;19.70;99.90;;;;;;6079902;23;20034;-80
2022/09/06 08:47:03;;;;;;;0.77;0.40;;;19.80;99.90;;;;;;6077663;23;20050;-80
2022/09/06 08:49:35;;;;;;;2.25;0.60;;;20.00;99.90;;;;;;6077981;23;20030;-80
2022/09/06 08:52:42;;;;;;;1.45;0.60;;;20.00;99.90;;;;;;6054420;23;20050;-79
2022/09/06 08:55:39;;;;;;;1.40;0.60;;;20.10;99.90;;;;;;6058623;23;20121;-80
2022/09/06 08:58:28;;;;;;;2.03;0.80;;;20.20;99.90;;;;;;6078468;23;20458;-80
2022/09/06 09:01:01;;;;;;;1.20;0.80;;;20.20;99.90;;;;;;6077750;23;20030;-79
2022/09/06 09:03:36;;;;;;;0.90;0.57;;;20.30;99.90;;;;;;6077689;23;20110;-80
2022/09/06 09:06:05;;;;;;;1.02;0.60;;;20.30;99.90;;;;;;6078406;23;20086;-80
2022/09/06 09:08:45;;;;;;;0.95;0.60;;;20.20;99.90;;;;;;6077610;23;20108;-79
2022/09/06 09:11:16;;;;;;;1.25;0.73;;;20.10;99.90;;;;;;6078891;23;20030;-80
2022/09/06 09:13:46;;;;;;;1.65;0.95;;;20.10;99.90;;;;;;6078472;23;20026;-79
2022/09/06 09:16:13;;;;;;;1.27;0.60;;;20.10;99.90;;;;;;6078815;23;20030;-78
2022/09/06 09:18:42;;;;;;;0.52;0.45;;;20.10;99.90;;;;;;6077733;23;20052;-79
2022/09/06 09:21:09;;;;;;;0.73;0.45;;;20.10;99.90;;;;;;6078232;23;20061;-78
2022/09/06 09:23:36;;;;;;;1.05;0.50;;;20.20;99.90;;;;;;6053431;23;20034;-79
2022/09/06 09:26:10;;;;;;;2.33;0.93;;;20.30;99.90;;;;;;6054289;23;20030;-79
2022/09/06 09:28:37;;;;;;;3.58;1.10;;;20.30;99.90;;;;;;6078548;23;20041;-78
2022/09/06 09:31:04;;;;;;;1.50;0.75;;;20.40;99.90;;;;;;6054683;23;20142;-78
2022/09/06 09:33:34;;;;;;;0.93;0.65;;;20.50;99.90;;;;;;6053305;23;20154;-78
2022/09/06 09:36:11;;;;;;;1.65;0.73;;;20.60;99.90;;;;;;6080105;23;20088;-78
2022/09/06 09:38:48;;;;;;;0.88;0.50;;;20.70;99.90;;;;;;6079452;23;20106;-78
2022/09/06 09:41:30;;;;;;;1.60;0.77;;;20.90;99.90;;;;;;6079223;23;20314;-78
2022/09/06 09:44:17;;;;;;;1.20;0.60;;;21.00;99.90;;;;;;6055270;23;20438;-78
2022/09/06 09:46:44;;;;;;;2.17;0.80;;;21.10;99.90;;;;;;6079071;23;20038;-78
2022/09/06 09:49:31;;;;;;;0.63;0.50;;;21.20;99.90;;;;;;6055250;23;20026;-78
2022/09/06 09:52:12;;;;;;;1.80;0.68;;;21.30;99.90;;;;;;6079541;23;20034;-79
2022/09/06 09:54:40;;;;;;;0.82;0.60;;;21.30;99.90;;;;;;6080109;23;20054;-78
2022/09/06 09:57:08;;;;;;;0.75;0.50;;;21.40;99.90;;;;;;6079894;23;20046;-78
2022/09/06 09:59:48;;;;;;;0.80;0.50;;;21.50;99.90;;;;;;6079935;23;20027;-78
2022/09/06 10:02:24;;;;;;;1.83;0.60;;;21.50;99.90;;;;;;6054676;23;20097;-77
2022/09/06 10:04:52;;;;;;;2.30;0.73;;;21.40;99.90;;;;;;6078765;23;20050;-78
2022/09/06 10:07:21;;;;;;;1.10;0.60;;;21.40;99.90;;;;;;6055498;23;20026;-78
2022/09/06 10:09:49;;;;;;;3.30;1.00;;;21.40;99.90;;;;;;6080293;23;20026;-78
2022/09/06 10:12:37;;;;;;;2.20;0.82;;;21.40;99.90;;;;;;6078588;23;20026;-78
2022/09/06 10:15:05;;;;;;;3.08;1.02;;;21.50;99.90;;;;;;6083241;23;20029;-78
2022/09/06 10:17:46;;;;;;;2.08;0.88;;;21.60;99.90;;;;;;6078064;23;20399;-78
2022/09/06 10:20:13;;;;;;;1.90;0.90;;;21.60;99.90;;;;;;6055088;23;20060;-78
2022/09/06 10:22:42;;;;;;;2.58;0.80;;;21.60;99.90;;;;;;6078605;23;20114;-78
2022/09/06 10:25:24;;;;;;;1.35;0.60;;;21.50;99.90;;;;;;6082067;23;20029;-79
2022/09/06 10:28:11;;;;;;;2.60;0.98;;;21.50;99.90;;;;;;6083240;23;20097;-78
2022/09/06 10:31:07;;;;;;;2.75;0.90;;;21.50;99.90;;;;;;6068090;23;20102;-78
2022/09/06 10:33:52;;;;;;;1.75;0.88;;;21.60;99.90;;;;;;6078345;23;20023;-78
2022/09/06 10:36:26;;;;;;;2.40;1.00;;;21.70;99.90;;;;;;6084743;23;20102;-78
2022/09/06 10:38:59;;;;;;;1.45;0.90;;;21.80;99.90;;;;;;6059315;23;20026;-78
2022/09/06 10:41:44;;;;;;;2.20;1.52;;;21.90;99.90;;;;;;6059369;23;20023;-78
2022/09/06 10:44:29;;;;;;;2.92;1.13;;;21.90;99.90;;;;;;6083830;23;20097;-77
2022/09/06 10:47:13;;;;;;;1.85;1.00;;;22.10;99.90;;;;;;6083782;23;20050;-78
2022/09/06 10:49:43;;;;;;;1.83;0.95;;;22.20;99.90;;;;;;6058547;23;20372;-78
2022/09/06 10:52:23;;;;;;;3.28;0.93;;;22.40;99.90;;;;;;6082212;23;20081;-78
2022/09/06 10:54:49;;;;;;;4.13;1.33;;;22.40;99.90;;;;;;6059178;23;20061;-77
2022/09/06 10:57:28;;;;;;;2.15;1.10;;;22.50;99.90;;;;;;6082233;23;20101;-78
2022/09/06 11:00:15;;;;;;;4.40;1.50;;;22.50;99.90;;;;;;6082970;23;20024;-78
2022/09/06 11:03:12;;;;;;;5.22;1.63;;;22.50;99.90;;;;;;6057795;23;20334;-77
2022/09/06 11:06:05;;;;;;;2.80;1.23;;;22.40;99.90;;;;;;6084271;23;20018;-78
2022/09/06 11:08:52;;;;;;;2.75;0.85;;;22.50;99.90;;;;;;6082298;23;20451;-78
2022/09/06 11:11:34;;;;;;;1.63;0.70;;;22.50;99.90;;;;;;6081735;23;20023;-78
2022/09/06 11:14:08;;;;;;;1.52;0.70;;;22.60;99.90;;;;;;6082133;23;20382;-79
2022/09/06 11:16:40;;;;;;;1.23;0.68;;;22.60;99.90;;;;;;6080284;23;20042;-77
2022/09/06 11:19:28;;;;;;;1.45;1.00;;;22.70;99.90;;;;;;6081991;23;20034;-77
2022/09/06 11:22:11;;;;;;;2.00;0.88;;;22.70;99.90;;;;;;6081352;23;20073;-78
2022/09/06 11:25:03;;;;;;;1.92;1.15;;;22.90;99.90;;;;;;6057792;23;20060;-76
2022/09/06 11:27:30;;;;;;;1.27;0.70;;;23.20;99.90;;;;;;6082950;23;20026;-77
2022/09/06 11:29:57;;;;;;;1.85;0.70;;;23.20;99.90;;;;;;6080334;23;20806;-76
2022/09/06 11:32:36;;;;;;;1.80;0.90;;;23.30;99.90;;;;;;6079828;23;20026;-77
2022/09/06 11:35:08;;;;;;;1.58;0.68;;;23.50;99.90;;;;;;6081696;23;20157;-77
2022/09/06 11:37:42;;;;;;;0.88;0.57;;;23.60;99.90;;;;;;6081546;23;20330;-77
2022/09/06 11:40:23;;;;;;;1.60;0.80;;;23.70;99.90;;;;;;6081559;23;20022;-77
2022/09/06 11:42:58;;;;;;;1.40;0.68;;;23.70;99.90;;;;;;6082699;23;20622;-77
2022/09/06 11:45:47;;;;;;;1.58;0.70;;;23.90;99.90;;;;;;6079595;23;20019;-77
2022/09/06 11:48:23;;;;;;;1.33;0.50;;;23.70;99.90;;;;;;6076847;23;20089;-77
2022/09/06 11:50:53;;;;;;;3.65;0.93;;;23.60;99.90;;;;;;6077210;23;20094;-77
2022/09/06 11:53:43;;;;;;;2.30;0.98;;;23.50;99.90;;;;;;6078263;23;20078;-77
2022/09/06 11:56:15;;;;;;;1.52;0.70;;;23.50;99.90;;;;;;6048099;23;20023;-77
2022/09/06 11:58:52;;;;;;;2.20;0.98;;;23.50;99.90;;;;;;6076520;23;20097;-77
2022/09/06 12:01:19;;;;;;;2.70;1.08;;;23.50;99.90;;;;;;6051521;23;20026;-76
2022/09/06 12:03:51;;;;;;;1.25;0.70;;;23.60;99.90;;;;;;6077985;23;20351;-77
2022/09/06 12:06:42;;;;;;;1.85;0.90;;;23.60;99.90;;;;;;6078150;23;20660;-76
2022/09/06 12:09:26;;;;;;;1.13;0.65;;;23.70;99.90;;;;;;6077717;23;20034;-76
2022/09/06 12:11:55;;;;;;;1.45;0.65;;;23.90;99.90;;;;;;6076902;23;20743;-77
2022/09/06 12:14:45;;;;;;;1.77;0.82;;;24.10;99.90;;;;;;6076997;23;20041;-76
2022/09/06 12:17:12;;;;;;;1.33;0.60;;;24.40;99.90;;;;;;6053437;23;20045;-77
2022/09/06 12:19:43;;;;;;;1.10;0.68;;;25.10;99.90;;;;;;6077392;23;20352;-77
2022/09/06 12:22:28;;;;;;;2.28;0.90;;;25.40;99.90;;;;;;6075762;23;20026;-76
2022/09/06 12:25:08;;;;;;;2.97;0.88;;;25.50;99.90;;;;;;6078362;23;20030;-77
2022/09/06 12:27:38;;;;;;;2.03;1.05;;;25.20;99.90;;;;;;6075977;23;20018;-77
2022/09/06 12:30:07;;;;;;;1.67;1.10;;;25.50;99.90;;;;;;6076464;23;20057;-75
2022/09/06 12:32:50;;;;;;;3.58;1.42;;;25.70;99.90;;;;;;6076565;23;20030;-77
2022/09/06 12:35:25;;;;;;;1.85;0.90;;;25.40;99.90;;;;;;6077174;23;20030;-76
2022/09/06 12:38:14;;;;;;;2.78;0.90;;;25.30;99.90;;;;;;6076599;23;20105;-76
2022/09/06 12:40:46;;;;;;;2.13;0.88;;;25.60;99.90;;;;;;6077397;23;20065;-77
2022/09/06 12:43:14;;;;;;;1.30;0.85;;;26.20;99.90;;;;;;6076912;23;20041;-77
2022/09/06 12:45:42;;;;;;;1.77;1.00;;;27.00;99.90;;;;;;6077804;23;20101;-77
2022/09/06 12:48:10;;;;;;;1.00;0.60;;;27.50;99.90;;;;;;6076108;23;20814;-77
2022/09/06 12:50:37;;;;;;;0.40;0.30;;;28.00;99.90;;;;;;6052655;23;20091;-77
2022/09/06 12:53:17;;;;;;;1.85;0.60;;;28.20;99.90;;;;;;6076861;23;20027;-77
2022/09/06 12:55:51;;;;;;;1.38;0.68;;;28.10;99.90;;;;;;6079168;23;20535;-76
2022/09/06 12:58:24;;;;;;;0.70;0.47;;;27.80;99.90;;;;;;6076101;23;20026;-76
2022/09/06 13:00:51;;;;;;;1.38;0.50;;;27.80;99.90;;;;;;6075612;23;20398;-77
2022/09/06 13:03:28;;;;;;;0.88;0.47;;;27.80;99.90;;;;;;6075683;23;20058;-76
2022/09/06 13:05:55;;;;;;;1.02;0.50;;;27.80;99.90;;;;;;6077402;23;20026;-76
2022/09/06 13:08:44;;;;;;;0.90;0.60;;;27.60;99.90;;;;;;6076742;23;20034;-76
2022/09/06 13:11:13;;;;;;;0.88;0.50;;;27.60;99.90;;;;;;6077209;23;20347;-76
2022/09/06 13:13:47;;;;;;;2.28;0.88;;;28.20;99.90;;;;;;6054740;23;20774;-77